Pittsburgh, PA (15223)

10:51 PM EDT on September 28, 2016 (GMT -0400)
Shadyside | | Change Station

Elev 889 ft 40.45 °N, 79.94 °W | Updated 8 minutes ago

Mostly Cloudy
Mostly Cloudy
66.2 °F
Feels Like 66.2 °F
N
2.0
Wind Variable Wind from ENE
Gusts 4.0 mph

Today
High -- | Low -- °F
--% Chance of Precip.
Yesterday
High -- | Low -- °F
Precip. -- in
Pressure 29.98 in
Visibility 10.0 miles
Clouds Mostly Cloudy 2000 ft
Dew Point 58 °F
Humidity 75%
Rainfall 0.00 in
Snow Depth Not available.
7:13 AM 7:06 PM
Waning Crescent, 3% visible
SPECI KAGC 290239Z 12005KT 10SM BKN020 17/13 A2998 RMK AO2 T01720128
Pressure 29.98 in
Visibility 10.0 miles
Clouds Mostly Cloudy 2000 ft
Dew Point 58 °F
Humidity 75%
Rainfall 0.00 in
Snow Depth Not available.
7:13 AM 7:06 PM
Waning Crescent, 3% visible
SPECI KAGC 290239Z 12005KT 10SM BKN020 17/13 A2998 RMK AO2 T01720128

10-Day Weather Forecast

Almanac

Astronomy

Sep. 28, 2016 Rise Set
Actual Time
Civil Twilight
Nautical Twilight
Astronomical Twilight
Moon
Length of Visible Light
Length of Day
Tomorrow will be .
, % of the Moon is Illuminated

Today's Extremes

State Highs State Lows

Community

WunderPhotos

Upload Photos

1,942,402 photos uploaded!

WunderBlog® & News

Nearby

Air Quality

  Air Quality AQ Index Pollutant
Not available.

Snow Depth

Station Depth Elevation

Earthquake Activity

City Distance Mag. Time & Date
Minimum magnitude displayed is 2.5.

Coastal Water Temperatures

Place Temperature

Stations

Nearby Weather Stations

Station Location Temp. Windchill Dew Point Humidity Wind Precip. Elev Updated Type
                   

Watches & Warnings

There are currently no watches in effect.